Time;durP1;ratioP1;P1;durP2;ratioP2;P2;SDS_P1;SDS_P2;PMS_P1;PMS_P2;Temp;Humidity;BMP_temperature;BMP_pressure;BME280_temperature;BME280_humidity;BME280_pressure;Samples;Min_cycle;Max_cycle;Signal;HPM_P1;HPM_P2
2021/06/29 00:01:42;;;;;;;9.65;4.50;;;21.40;74.60;;;;;;5074384;28;20051;-78
2021/06/29 00:04:08;;;;;;;6.75;4.07;;;21.40;74.60;;;;;;5074325;28;20049;-77
2021/06/29 00:06:34;;;;;;;6.32;4.10;;;21.40;74.60;;;;;;5074063;28;20049;-76
2021/06/29 00:08:59;;;;;;;10.98;5.32;;;21.40;74.60;;;;;;5075142;28;20041;-77
2021/06/29 00:11:25;;;;;;;9.10;4.45;;;21.40;74.60;;;;;;5075218;28;20119;-76
2021/06/29 00:13:51;;;;;;;11.95;4.55;;;21.40;74.70;;;;;;5074631;28;20131;-77
2021/06/29 00:16:18;;;;;;;10.27;4.38;;;21.40;74.60;;;;;;5074950;28;20052;-76
2021/06/29 00:18:44;;;;;;;11.30;5.15;;;21.40;74.50;;;;;;5078376;28;20064;-77
2021/06/29 00:21:09;;;;;;;9.18;4.47;;;21.40;74.50;;;;;;5078310;28;20052;-77
2021/06/29 00:23:40;;;;;;;9.27;4.50;;;21.40;74.50;;;;;;5078615;28;20048;-77
2021/06/29 00:26:07;;;;;;;9.70;4.97;;;21.40;74.50;;;;;;5078141;28;20048;-77
2021/06/29 00:28:34;;;;;;;7.97;4.18;;;21.40;74.50;;;;;;5077414;28;20469;-78
2021/06/29 00:31:00;;;;;;;10.40;4.57;;;21.40;74.50;;;;;;5077764;28;20055;-75
2021/06/29 00:33:26;;;;;;;11.02;4.05;;;21.40;74.50;;;;;;5077901;28;20448;-77
2021/06/29 00:35:53;;;;;;;10.45;4.82;;;21.40;74.40;;;;;;5077807;28;20443;-77
2021/06/29 00:38:18;;;;;;;10.38;4.75;;;21.40;74.40;;;;;;5077712;28;20078;-77
2021/06/29 00:40:45;;;;;;;10.20;4.28;;;21.40;74.50;;;;;;5077791;28;20068;-79
2021/06/29 00:43:11;;;;;;;8.00;3.97;;;21.40;74.60;;;;;;5077918;28;20440;-77
2021/06/29 00:45:36;;;;;;;8.40;4.43;;;21.40;74.60;;;;;;5077262;28;20076;-76
2021/06/29 00:48:03;;;;;;;8.68;4.25;;;21.40;74.60;;;;;;5077259;28;20071;-77
2021/06/29 00:50:29;;;;;;;9.68;4.53;;;21.40;74.50;;;;;;5077349;28;20059;-77
2021/06/29 00:52:55;;;;;;;11.68;4.50;;;21.40;74.50;;;;;;5077508;28;20451;-77
2021/06/29 00:55:20;;;;;;;8.43;4.00;;;21.30;74.50;;;;;;5077658;28;20051;-77
2021/06/29 00:57:51;;;;;;;13.73;4.68;;;21.30;74.50;;;;;;5077484;28;20060;-77
2021/06/29 01:00:17;;;;;;;7.07;4.03;;;21.30;74.50;;;;;;5077648;28;20056;-77
2021/06/29 01:02:43;;;;;;;9.23;4.40;;;21.30;74.40;;;;;;5077470;28;20045;-76
2021/06/29 01:05:12;;;;;;;14.35;4.75;;;21.30;74.40;;;;;;5077546;28;20119;-76
2021/06/29 01:07:39;;;;;;;11.55;4.45;;;21.30;74.40;;;;;;5075093;28;20056;-76
2021/06/29 01:10:06;;;;;;;12.05;4.13;;;21.30;74.30;;;;;;5076198;28;20373;-78
2021/06/29 01:12:33;;;;;;;7.20;4.13;;;21.30;74.30;;;;;;5077181;28;20368;-76
2021/06/29 01:14:59;;;;;;;11.82;4.40;;;21.30;74.90;;;;;;5077259;28;20054;-77
2021/06/29 01:17:25;;;;;;;12.57;4.80;;;21.30;74.30;;;;;;5076997;28;20124;-76
2021/06/29 01:19:52;;;;;;;9.55;4.50;;;21.30;74.30;;;;;;5076974;28;20090;-77
2021/06/29 01:22:19;;;;;;;12.70;4.45;;;21.20;74.30;;;;;;5077185;28;20087;-78
2021/06/29 01:24:51;;;;;;;12.13;5.10;;;21.30;74.40;;;;;;5076817;28;20047;-77
2021/06/29 01:32:20;;;;;;;15.32;5.15;;;21.20;74.20;;;;;;5076734;28;20095;-76
2021/06/29 01:34:46;;;;;;;12.88;4.68;;;21.20;74.20;;;;;;5076849;28;20472;-76
2021/06/29 01:37:13;;;;;;;11.48;4.82;;;21.30;74.30;;;;;;5076767;28;20127;-75
2021/06/29 01:40:06;;;;;;;13.27;4.72;;;21.20;74.30;;;;;;5076092;28;20049;-76
2021/06/29 01:42:32;;;;;;;13.05;4.85;;;21.20;74.10;;;;;;5076506;28;20498;-76
2021/06/29 01:44:59;;;;;;;7.97;4.45;;;21.20;74.30;;;;;;5076370;28;20045;-76
2021/06/29 01:47:38;;;;;;;15.30;5.03;;;21.20;74.40;;;;;;5076503;28;20043;-78
2021/06/29 01:50:11;;;;;;;13.10;4.88;;;21.20;74.40;;;;;;5076242;28;20049;-77
2021/06/29 01:52:37;;;;;;;11.60;4.78;;;21.20;74.30;;;;;;5076437;28;20045;-76
2021/06/29 01:55:05;;;;;;;11.75;5.13;;;21.20;74.40;;;;;;5076244;28;20048;-76
2021/06/29 01:57:31;;;;;;;11.63;5.20;;;21.20;74.50;;;;;;5076502;28;20317;-77
2021/06/29 01:59:57;;;;;;;11.07;4.43;;;21.10;74.40;;;;;;5076823;28;20107;-75
2021/06/29 02:02:22;;;;;;;11.65;4.75;;;21.10;74.50;;;;;;5076790;28;20087;-76
2021/06/29 02:04:48;;;;;;;15.07;4.03;;;21.10;74.40;;;;;;5075862;28;20045;-77
2021/06/29 02:07:14;;;;;;;13.82;4.80;;;21.10;74.50;;;;;;5074662;28;20060;-76
2021/06/29 02:09:40;;;;;;;12.27;4.45;;;21.10;74.50;;;;;;5076004;28;20044;-77
2021/06/29 02:12:06;;;;;;;9.05;4.72;;;21.10;74.60;;;;;;5076648;28;20449;-77
2021/06/29 02:14:33;;;;;;;9.75;4.63;;;21.10;74.50;;;;;;5075948;28;20379;-77
2021/06/29 02:16:59;;;;;;;10.85;4.75;;;21.10;74.50;;;;;;5076000;28;20041;-77
2021/06/29 02:19:25;;;;;;;10.65;4.47;;;21.10;74.50;;;;;;5075791;28;20060;-75
2021/06/29 02:21:50;;;;;;;11.95;4.35;;;21.10;74.40;;;;;;5075607;28;20068;-78
2021/06/29 02:24:16;;;;;;;10.93;4.85;;;21.10;74.50;;;;;;5075882;28;20431;-75
2021/06/29 02:26:42;;;;;;;10.13;4.13;;;21.10;74.50;;;;;;5075812;28;20063;-76
2021/06/29 02:29:08;;;;;;;11.95;5.07;;;21.10;74.50;;;;;;5075474;28;20056;-75
2021/06/29 02:31:34;;;;;;;11.20;4.55;;;21.10;74.50;;;;;;5075597;28;20036;-76
2021/06/29 02:34:00;;;;;;;9.88;4.25;;;21.10;74.50;;;;;;5075147;28;20047;-79
2021/06/29 02:36:26;;;;;;;9.75;4.28;;;21.10;74.40;;;;;;5075824;28;20047;-75
2021/06/29 02:38:52;;;;;;;11.52;5.00;;;21.10;74.50;;;;;;5074838;28;20056;-76
2021/06/29 02:41:18;;;;;;;10.85;4.30;;;21.10;74.50;;;;;;5075625;28;20174;-75
2021/06/29 02:43:47;;;;;;;10.95;4.03;;;21.10;74.50;;;;;;5075672;28;20045;-76
2021/06/29 02:46:13;;;;;;;10.55;4.45;;;21.10;74.50;;;;;;5075196;28;20106;-77
2021/06/29 02:48:39;;;;;;;16.23;4.88;;;21.10;74.40;;;;;;5075137;28;20048;-76
2021/06/29 02:51:05;;;;;;;10.23;4.35;;;21.10;74.40;;;;;;5075195;28;20048;-77
2021/06/29 02:53:31;;;;;;;9.70;4.32;;;21.10;74.40;;;;;;5075255;28;20036;-76
2021/06/29 02:55:57;;;;;;;8.77;4.25;;;21.10;74.40;;;;;;5074814;28;20037;-77
2021/06/29 02:58:26;;;;;;;12.88;4.93;;;21.10;74.40;;;;;;5075931;28;20305;-78
2021/06/29 03:00:52;;;;;;;11.20;4.90;;;21.10;74.40;;;;;;5074956;28;20056;-76
2021/06/29 03:03:18;;;;;;;9.98;4.60;;;21.10;74.40;;;;;;5075472;28;20048;-77
2021/06/29 03:05:44;;;;;;;9.90;4.65;;;21.00;74.30;;;;;;5074937;28;20044;-76
2021/06/29 03:08:10;;;;;;;8.80;4.25;;;21.00;74.40;;;;;;5075081;28;20139;-75
2021/06/29 03:10:35;;;;;;;12.98;4.65;;;21.00;74.40;;;;;;5074192;28;20056;-77
2021/06/29 03:13:01;;;;;;;9.18;4.50;;;21.00;74.40;;;;;;5075518;28;20111;-77
2021/06/29 03:15:28;;;;;;;13.05;4.45;;;21.00;74.30;;;;;;5075529;28;20051;-78
2021/06/29 03:17:53;;;;;;;12.95;4.28;;;21.00;74.40;;;;;;5074722;28;20463;-77
2021/06/29 03:20:19;;;;;;;7.88;4.82;;;21.00;74.40;;;;;;5074877;28;20056;-76
2021/06/29 03:22:46;;;;;;;10.73;4.68;;;21.00;74.40;;;;;;5075114;28;20052;-76
2021/06/29 03:25:13;;;;;;;8.43;4.30;;;21.00;74.40;;;;;;5075262;28;20064;-76
2021/06/29 03:27:38;;;;;;;8.82;4.45;;;21.00;74.40;;;;;;5074859;28;20037;-77
2021/06/29 03:30:08;;;;;;;11.48;4.40;;;21.00;74.40;;;;;;5073552;28;20052;-76
2021/06/29 03:32:34;;;;;;;8.93;4.57;;;21.00;74.40;;;;;;5073961;28;20064;-77
2021/06/29 03:35:02;;;;;;;8.50;3.78;;;21.00;74.40;;;;;;5075180;28;20044;-77
2021/06/29 03:37:28;;;;;;;11.07;4.70;;;21.00;74.40;;;;;;5075054;28;20045;-75
2021/06/29 03:39:54;;;;;;;8.35;3.92;;;21.00;74.40;;;;;;5074891;28;20058;-75
2021/06/29 03:42:20;;;;;;;8.35;4.20;;;21.00;74.40;;;;;;5074647;28;20041;-76
2021/06/29 03:44:46;;;;;;;10.52;4.47;;;20.90;74.40;;;;;;5075057;28;20044;-78
2021/06/29 03:47:14;;;;;;;11.18;4.10;;;21.00;74.40;;;;;;5074301;28;20078;-75
2021/06/29 03:49:40;;;;;;;7.57;3.95;;;20.90;74.40;;;;;;5074623;28;20402;-78
2021/06/29 03:52:06;;;;;;;8.68;4.15;;;20.90;74.40;;;;;;5078200;28;20048;-77
2021/06/29 03:54:31;;;;;;;8.95;4.10;;;20.90;74.40;;;;;;5078602;28;20440;-76
2021/06/29 03:56:57;;;;;;;9.55;4.15;;;20.90;74.40;;;;;;5078605;28;20120;-76
2021/06/29 03:59:23;;;;;;;11.30;4.47;;;20.90;74.40;;;;;;5078720;28;20068;-77
2021/06/29 04:01:51;;;;;;;8.55;4.38;;;20.90;74.40;;;;;;5078450;28;20348;-76
2021/06/29 04:04:17;;;;;;;13.60;4.45;;;20.90;74.40;;;;;;5078407;28;20055;-76
2021/06/29 04:06:43;;;;;;;11.63;4.32;;;20.90;74.40;;;;;;5077891;28;20095;-76
2021/06/29 04:09:09;;;;;;;10.23;4.88;;;20.90;74.40;;;;;;5078392;28;20117;-76
2021/06/29 04:11:43;;;;;;;7.88;3.70;;;20.90;74.40;;;;;;5077706;28;20478;-76
2021/06/29 04:14:09;;;;;;;9.98;3.97;;;20.90;74.40;;;;;;5076878;28;20040;-76
2021/06/29 04:16:35;;;;;;;9.13;3.55;;;20.90;74.30;;;;;;5077978;28;20051;-78
2021/06/29 04:19:01;;;;;;;15.82;5.10;;;20.90;74.30;;;;;;5078064;28;20048;-77
2021/06/29 04:21:27;;;;;;;14.05;5.03;;;21.00;73.90;;;;;;5078150;28;20036;-76
2021/06/29 04:23:56;;;;;;;10.52;4.60;;;20.90;73.80;;;;;;5078149;28;20032;-72
2021/06/29 04:26:22;;;;;;;12.13;4.35;;;20.90;74.00;;;;;;5078261;28;20044;-75
2021/06/29 04:28:48;;;;;;;13.60;4.35;;;20.90;74.10;;;;;;5077912;28;20040;-78
2021/06/29 04:31:17;;;;;;;15.52;4.47;;;20.80;73.90;;;;;;5077639;28;20439;-78
2021/06/29 04:33:43;;;;;;;14.85;5.28;;;20.90;74.10;;;;;;5077924;28;20044;-75
2021/06/29 04:36:09;;;;;;;11.93;4.90;;;20.80;74.10;;;;;;5077861;28;20462;-73
2021/06/29 04:38:35;;;;;;;14.85;4.88;;;20.80;73.90;;;;;;5077905;28;20122;-76
2021/06/29 04:41:01;;;;;;;20.33;5.15;;;20.80;74.00;;;;;;5077348;28;20043;-74
2021/06/29 04:43:27;;;;;;;21.23;5.10;;;20.80;74.20;;;;;;5077363;28;20462;-74
2021/06/29 04:45:53;;;;;;;19.48;5.45;;;20.80;74.30;;;;;;5077441;28;20405;-74
2021/06/29 04:48:19;;;;;;;16.50;5.03;;;20.80;74.20;;;;;;5077630;28;20044;-78
2021/06/29 04:50:45;;;;;;;12.90;4.97;;;20.80;74.30;;;;;;5077824;28;20127;-71
2021/06/29 04:53:11;;;;;;;15.15;4.63;;;20.80;74.60;;;;;;5077650;28;20079;-76
2021/06/29 04:55:37;;;;;;;11.80;5.35;;;20.80;74.20;;;;;;5077732;28;20044;-75
2021/06/29 04:58:03;;;;;;;13.68;4.80;;;20.80;74.70;;;;;;5077336;28;20059;-72
2021/06/29 05:00:31;;;;;;;13.90;5.53;;;20.70;74.10;;;;;;5076261;28;20060;-72
2021/06/29 05:02:57;;;;;;;17.35;4.68;;;20.70;74.10;;;;;;5076751;28;20070;-70
2021/06/29 05:05:23;;;;;;;12.20;4.88;;;20.70;73.90;;;;;;5077799;28;20409;-75
2021/06/29 05:07:49;;;;;;;14.65;5.13;;;20.70;74.10;;;;;;5076618;28;20087;-75
2021/06/29 05:10:15;;;;;;;14.43;5.18;;;20.60;73.80;;;;;;5076297;28;20454;-74
2021/06/29 05:12:41;;;;;;;16.60;5.15;;;20.70;74.20;;;;;;5077351;28;20048;-73
2021/06/29 05:15:10;;;;;;;13.68;5.70;;;20.70;74.50;;;;;;5076982;28;20421;-74
2021/06/29 05:17:36;;;;;;;18.92;5.57;;;20.70;74.50;;;;;;5077252;28;20036;-74
2021/06/29 05:20:04;;;;;;;13.70;5.40;;;20.80;74.90;;;;;;5076951;28;20055;-73
2021/06/29 05:22:30;;;;;;;13.75;5.10;;;20.80;75.00;;;;;;5076300;28;20051;-74
2021/06/29 05:24:55;;;;;;;14.95;4.55;;;20.80;74.80;;;;;;5076455;28;20041;-74
2021/06/29 05:27:21;;;;;;;12.65;4.78;;;20.80;74.80;;;;;;5076729;28;20070;-73
2021/06/29 05:29:47;;;;;;;15.10;5.30;;;20.80;74.70;;;;;;5080650;28;20051;-73
2021/06/29 05:32:13;;;;;;;10.35;4.03;;;20.80;74.90;;;;;;5087947;28;20054;-73
2021/06/29 05:34:40;;;;;;;15.93;5.25;;;20.90;74.80;;;;;;5078772;28;20036;-72
2021/06/29 05:37:06;;;;;;;11.85;4.90;;;20.90;75.20;;;;;;5096810;28;20336;-74
2021/06/29 05:39:32;;;;;;;15.27;4.63;;;20.90;75.30;;;;;;5088132;28;20059;-71
2021/06/29 05:41:57;;;;;;;11.23;4.80;;;20.90;75.20;;;;;;5076355;28;20047;-75
2021/06/29 05:44:23;;;;;;;10.70;4.07;;;21.00;75.30;;;;;;5076643;28;20048;-72
2021/06/29 05:46:52;;;;;;;16.48;5.10;;;21.00;75.60;;;;;;5076290;28;20068;-72
2021/06/29 05:49:17;;;;;;;11.10;4.38;;;21.00;76.10;;;;;;5076448;28;20051;-72
2021/06/29 05:51:45;;;;;;;9.98;4.55;;;21.00;75.50;;;;;;5076265;28;20044;-72
2021/06/29 05:54:12;;;;;;;14.55;4.78;;;21.00;75.40;;;;;;5076272;28;20380;-72
2021/06/29 05:56:40;;;;;;;16.73;4.75;;;21.00;75.50;;;;;;5076018;28;20497;-74
2021/06/29 05:59:06;;;;;;;13.55;5.05;;;21.00;75.20;;;;;;5075941;28;20052;-73
2021/06/29 06:01:32;;;;;;;17.50;5.10;;;21.00;75.40;;;;;;5075840;28;20414;-71
2021/06/29 06:03:58;;;;;;;16.02;5.05;;;21.00;75.40;;;;;;5075671;28;20059;-71
2021/06/29 06:06:23;;;;;;;12.88;5.22;;;21.10;75.50;;;;;;5074546;28;20040;-74
2021/06/29 06:08:49;;;;;;;13.13;4.85;;;21.10;75.50;;;;;;5075336;28;20056;-72
2021/06/29 06:11:15;;;;;;;12.75;5.45;;;21.10;75.30;;;;;;5075665;28;20048;-72
2021/06/29 06:13:41;;;;;;;16.95;5.13;;;21.10;75.40;;;;;;5074928;28;20049;-73
2021/06/29 06:16:07;;;;;;;13.18;5.63;;;21.10;75.50;;;;;;5075201;28;20040;-72
2021/06/29 06:18:35;;;;;;;15.65;5.03;;;21.10;75.40;;;;;;5078335;28;20069;-72
2021/06/29 06:21:00;;;;;;;14.40;5.05;;;21.20;75.30;;;;;;5084662;28;20454;-73
2021/06/29 06:23:26;;;;;;;11.35;4.55;;;21.20;75.30;;;;;;5078152;28;20048;-73
2021/06/29 06:25:52;;;;;;;17.35;5.13;;;21.10;75.20;;;;;;5085802;28;20090;-74
2021/06/29 06:28:18;;;;;;;14.25;4.78;;;21.10;75.10;;;;;;5084757;28;20512;-73
2021/06/29 06:30:44;;;;;;;16.15;5.05;;;21.20;75.10;;;;;;5095908;28;20067;-74
2021/06/29 06:33:11;;;;;;;12.60;4.60;;;21.20;75.00;;;;;;5096107;28;20051;-74
2021/06/29 06:35:36;;;;;;;15.05;5.97;;;21.10;74.80;;;;;;5096383;28;20300;-73
2021/06/29 06:38:02;;;;;;;13.13;5.93;;;21.20;74.20;;;;;;5095561;28;20040;-74
2021/06/29 06:40:29;;;;;;;15.95;6.20;;;21.10;73.90;;;;;;5095394;28;20048;-74
2021/06/29 06:42:55;;;;;;;15.15;5.88;;;21.00;73.80;;;;;;5094279;28;20055;-73
2021/06/29 06:45:23;;;;;;;20.05;6.00;;;21.00;73.60;;;;;;5095536;28;20051;-72
2021/06/29 06:47:51;;;;;;;22.13;6.20;;;21.00;73.60;;;;;;5095685;28;20413;-75
2021/06/29 06:50:18;;;;;;;13.60;5.95;;;21.00;73.60;;;;;;5093969;28;20042;-74
2021/06/29 06:52:43;;;;;;;15.35;6.07;;;20.90;73.60;;;;;;5094297;28;20127;-76
2021/06/29 06:55:10;;;;;;;16.60;6.53;;;20.90;73.50;;;;;;5094828;28;20114;-75
2021/06/29 06:57:36;;;;;;;17.65;5.43;;;20.90;73.60;;;;;;5078698;28;20094;-75
2021/06/29 07:00:04;;;;;;;16.92;5.95;;;20.80;73.70;;;;;;5076230;28;20113;-75
2021/06/29 07:02:30;;;;;;;22.65;6.25;;;20.80;73.80;;;;;;5090105;28;20044;-74
2021/06/29 07:04:56;;;;;;;19.13;6.70;;;20.80;73.80;;;;;;5095108;28;20117;-74
2021/06/29 07:07:21;;;;;;;13.43;5.28;;;20.80;73.90;;;;;;5094702;28;20067;-74
2021/06/29 07:09:47;;;;;;;19.45;5.95;;;20.80;74.10;;;;;;5095351;28;20036;-74
2021/06/29 07:12:13;;;;;;;18.95;6.35;;;20.80;74.10;;;;;;5095134;28;20459;-73
2021/06/29 07:14:39;;;;;;;18.08;5.93;;;20.90;74.20;;;;;;5094264;28;20047;-75
2021/06/29 07:17:05;;;;;;;14.25;5.65;;;20.90;74.20;;;;;;5095010;28;20047;-74
2021/06/29 07:19:31;;;;;;;17.13;5.80;;;20.90;74.30;;;;;;5095449;28;20572;-76
2021/06/29 07:21:57;;;;;;;15.20;5.55;;;20.90;74.30;;;;;;5095453;28;20123;-74
2021/06/29 07:24:23;;;;;;;14.93;6.55;;;21.00;74.40;;;;;;5095357;28;20197;-76
2021/06/29 07:26:49;;;;;;;9.70;4.80;;;21.00;74.40;;;;;;5093553;28;20036;-72
2021/06/29 07:29:15;;;;;;;13.40;5.10;;;21.00;74.30;;;;;;5078748;28;20041;-74
2021/06/29 07:31:41;;;;;;;14.93;5.75;;;21.00;74.30;;;;;;5078808;28;20114;-76
2021/06/29 07:34:06;;;;;;;14.55;5.65;;;21.00;74.30;;;;;;5078191;28;20058;-74
2021/06/29 07:36:32;;;;;;;14.73;5.75;;;21.00;74.30;;;;;;5078403;28;20147;-75
2021/06/29 07:38:58;;;;;;;13.77;5.70;;;21.00;74.20;;;;;;5078413;28;20044;-78
2021/06/29 07:41:24;;;;;;;13.30;5.28;;;21.00;74.20;;;;;;5078327;28;20115;-77
2021/06/29 07:43:51;;;;;;;14.68;6.18;;;21.00;74.20;;;;;;5079733;28;20044;-75
2021/06/29 07:46:17;;;;;;;12.93;5.32;;;21.10;74.40;;;;;;5091119;28;20058;-75
2021/06/29 07:48:43;;;;;;;13.35;6.13;;;21.00;74.30;;;;;;5099459;28;20519;-76
2021/06/29 07:51:09;;;;;;;12.02;5.85;;;21.00;74.40;;;;;;5099099;28;20119;-75
2021/06/29 07:53:37;;;;;;;14.45;6.18;;;21.10;74.40;;;;;;5098430;28;20052;-75
2021/06/29 07:56:03;;;;;;;17.15;6.95;;;21.10;74.20;;;;;;5096074;28;20054;-76
2021/06/29 07:58:29;;;;;;;12.80;5.65;;;21.10;74.30;;;;;;5087018;28;20060;-76
2021/06/29 08:00:56;;;;;;;17.23;7.07;;;21.10;74.30;;;;;;5088133;28;20040;-75
2021/06/29 08:03:22;;;;;;;18.25;7.20;;;21.00;74.10;;;;;;5078179;28;20040;-75
2021/06/29 08:05:48;;;;;;;20.33;6.93;;;21.00;74.10;;;;;;5078113;28;20066;-76
2021/06/29 08:08:14;;;;;;;18.80;6.68;;;21.00;74.50;;;;;;5077953;28;20088;-78
2021/06/29 08:10:39;;;;;;;17.33;6.80;;;21.00;73.90;;;;;;5078050;28;20110;-75
2021/06/29 08:13:06;;;;;;;21.13;6.40;;;21.00;74.00;;;;;;5094042;28;20113;-75
2021/06/29 08:15:32;;;;;;;20.90;7.90;;;21.00;74.10;;;;;;5078163;28;20055;-75
2021/06/29 08:17:58;;;;;;;27.20;7.93;;;21.00;74.00;;;;;;5077913;28;20379;-78
2021/06/29 08:20:24;;;;;;;20.83;7.32;;;20.90;74.00;;;;;;5077761;28;20443;-75
2021/06/29 08:22:52;;;;;;;17.33;7.28;;;20.90;74.00;;;;;;5077852;28;20401;-77
2021/06/29 08:25:18;;;;;;;22.88;8.90;;;20.90;74.00;;;;;;5077695;28;20375;-74
2021/06/29 08:27:44;;;;;;;18.20;7.45;;;20.90;74.00;;;;;;5093334;28;20055;-77
2021/06/29 08:30:11;;;;;;;18.70;7.30;;;20.80;73.90;;;;;;5077695;28;20055;-74
2021/06/29 08:32:40;;;;;;;18.75;7.70;;;20.90;74.00;;;;;;5077255;28;20463;-75
2021/06/29 08:35:08;;;;;;;19.30;7.22;;;20.90;73.90;;;;;;5077455;28;20351;-75
2021/06/29 08:37:34;;;;;;;18.42;7.25;;;20.80;73.90;;;;;;5076490;28;20076;-75
2021/06/29 08:40:00;;;;;;;18.08;7.35;;;20.80;73.80;;;;;;5077548;28;20360;-76
2021/06/29 08:42:27;;;;;;;19.95;7.38;;;20.80;73.80;;;;;;5077716;28;20037;-75
2021/06/29 08:44:53;;;;;;;24.05;8.07;;;20.80;73.80;;;;;;5077505;28;20367;-75
2021/06/29 08:47:19;;;;;;;18.08;7.25;;;20.80;73.80;;;;;;5077155;28;20483;-74
2021/06/29 08:49:45;;;;;;;16.27;7.40;;;20.80;73.80;;;;;;5077376;28;20123;-75
2021/06/29 08:52:13;;;;;;;22.17;8.10;;;20.80;73.90;;;;;;5087398;28;20115;-76
2021/06/29 08:54:39;;;;;;;19.05;7.18;;;20.80;73.80;;;;;;5078179;28;20109;-76
2021/06/29 08:57:06;;;;;;;23.73;7.93;;;20.70;73.70;;;;;;5077393;28;20071;-75
2021/06/29 08:59:32;;;;;;;18.15;6.65;;;20.70;73.70;;;;;;5078523;28;20060;-75
2021/06/29 09:02:01;;;;;;;23.60;8.60;;;20.60;73.80;;;;;;5096816;28;20090;-76
2021/06/29 09:04:48;;;;;;;19.58;7.93;;;20.60;73.90;;;;;;5096928;28;20103;-76
2021/06/29 09:07:19;;;;;;;21.30;7.47;;;20.60;73.60;;;;;;5096235;28;20083;-76
2021/06/29 09:09:56;;;;;;;20.75;8.35;;;20.60;73.90;;;;;;5096763;28;20058;-75
2021/06/29 09:12:46;;;;;;;23.02;7.90;;;20.50;73.80;;;;;;5096818;28;20043;-75
2021/06/29 09:15:30;;;;;;;25.17;8.55;;;20.50;73.80;;;;;;5096790;28;20048;-75
2021/06/29 09:17:58;;;;;;;;;;;20.40;74.00;;;;;;5097050;28;20036;-75
2021/06/29 09:20:27;;;;;;;20.73;7.85;;;20.40;73.60;;;;;;5096641;28;19980;-75
2021/06/29 09:22:56;;;;;;;19.17;7.25;;;20.40;74.30;;;;;;5095674;28;20040;-76
2021/06/29 09:25:29;;;;;;;23.33;8.80;;;20.40;75.00;;;;;;5096196;28;20158;-77
2021/06/29 09:27:57;;;;;;;24.80;8.27;;;20.40;74.30;;;;;;5082428;28;20116;-77
2021/06/29 09:30:26;;;;;;;18.95;8.25;;;20.40;74.30;;;;;;5075746;28;20059;-76
2021/06/29 09:32:53;;;;;;;22.45;8.25;;;20.40;74.30;;;;;;5075993;28;20048;-79
2021/06/29 09:35:21;;;;;;;24.45;8.63;;;20.30;74.30;;;;;;5075881;28;20064;-78
2021/06/29 09:37:47;;;;;;;23.85;9.15;;;20.30;74.40;;;;;;5075770;28;20063;-76
2021/06/29 09:40:15;;;;;;;24.73;9.32;;;20.40;74.50;;;;;;5075736;28;20051;-77
2021/06/29 09:42:41;;;;;;;24.05;9.65;;;20.30;74.20;;;;;;5075517;28;20509;-77
2021/06/29 09:45:34;;;;;;;26.80;9.40;;;20.30;74.30;;;;;;5075846;28;20170;-77
2021/06/29 09:48:01;;;;;;;19.88;9.02;;;20.20;74.40;;;;;;5075280;28;20473;-72
2021/06/29 09:50:49;;;;;;;22.80;9.13;;;20.20;74.60;;;;;;5076324;28;20121;-74
2021/06/29 09:53:23;;;;;;;22.80;8.75;;;20.20;74.60;;;;;;5092060;28;20157;-76
2021/06/29 09:55:52;;;;;;;21.02;9.15;;;20.20;74.70;;;;;;5076279;28;20041;-76
2021/06/29 09:58:21;;;;;;;25.38;9.68;;;20.10;74.70;;;;;;5075854;28;20055;-75
2021/06/29 10:00:51;;;;;;;25.20;9.60;;;20.10;74.70;;;;;;5075925;28;20452;-73
2021/06/29 10:03:25;;;;;;;24.05;8.90;;;20.10;74.80;;;;;;5076210;28;20124;-72
2021/06/29 10:05:52;;;;;;;;;;;20.10;74.80;;;;;;5076719;28;20050;-73
2021/06/29 10:08:24;;;;;;;20.83;8.73;;;20.00;74.90;;;;;;5075542;28;19990;-73
2021/06/29 10:11:01;;;;;;;19.23;8.98;;;20.00;75.10;;;;;;5074328;28;20036;-74
2021/06/29 10:13:31;;;;;;;26.13;9.38;;;19.90;75.20;;;;;;5075176;28;20044;-73
2021/06/29 10:15:57;;;;;;;24.65;9.15;;;19.90;75.40;;;;;;5075098;28;20041;-70
2021/06/29 10:18:23;;;;;;;23.88;9.63;;;19.90;75.60;;;;;;5074861;28;20052;-74
2021/06/29 10:20:52;;;;;;;18.48;8.77;;;19.90;75.60;;;;;;5074930;28;20462;-75
2021/06/29 10:23:19;;;;;;;21.05;8.82;;;19.80;76.20;;;;;;5074879;28;20444;-75
2021/06/29 10:25:45;;;;;;;25.02;9.45;;;19.80;75.50;;;;;;5075025;28;20048;-75
2021/06/29 10:28:14;;;;;;;24.20;10.18;;;19.80;75.50;;;;;;5074965;28;20549;-75
2021/06/29 10:30:41;;;;;;;24.70;9.48;;;19.80;75.60;;;;;;5085396;28;20044;-77
2021/06/29 10:33:08;;;;;;;23.85;10.52;;;19.70;75.60;;;;;;5094654;28;20512;-74
2021/06/29 10:35:35;;;;;;;23.92;9.95;;;19.70;75.70;;;;;;5095070;28;20052;-75
2021/06/29 10:38:01;;;;;;;24.42;10.13;;;19.70;75.80;;;;;;5095016;28;20069;-76
2021/06/29 10:40:28;;;;;;;26.75;10.50;;;19.70;75.80;;;;;;5095026;28;20048;-76
2021/06/29 10:42:59;;;;;;;23.83;9.10;;;19.70;75.80;;;;;;5094646;28;20044;-75
2021/06/29 10:45:35;;;;;;;26.08;10.80;;;19.70;75.90;;;;;;5094592;28;20102;-74
2021/06/29 10:48:18;;;;;;;25.90;10.48;;;19.60;76.00;;;;;;5094691;28;20073;-75
2021/06/29 10:50:47;;;;;;;21.75;9.80;;;19.60;76.10;;;;;;5093599;28;20470;-74
2021/06/29 10:53:31;;;;;;;20.77;9.38;;;19.70;76.20;;;;;;5094524;28;20435;-74
2021/06/29 10:55:57;;;;;;;24.42;9.90;;;19.70;76.10;;;;;;5094589;28;20443;-75
2021/06/29 10:58:41;;;;;;;23.00;10.13;;;19.60;76.20;;;;;;5094592;28;20047;-74
2021/06/29 11:01:24;;;;;;;23.40;10.27;;;19.60;76.30;;;;;;5086610;28;20111;-73
2021/06/29 11:03:52;;;;;;;19.52;9.85;;;19.60;76.40;;;;;;5074136;28;20052;-77
2021/06/29 11:06:47;;;;;;;24.13;8.85;;;19.70;76.50;;;;;;5074518;28;20037;-74
2021/06/29 11:09:21;;;;;;;20.23;9.10;;;19.80;76.40;;;;;;5074273;28;20052;-76
2021/06/29 11:12:19;;;;;;;21.67;9.07;;;19.90;76.40;;;;;;5078786;28;20044;-78
2021/06/29 11:14:49;;;;;;;19.67;8.77;;;19.90;76.10;;;;;;5094454;28;20051;-77
2021/06/29 11:17:16;;;;;;;19.27;9.55;;;20.00;76.10;;;;;;5094584;28;20060;-77
2021/06/29 11:20:06;;;;;;;18.88;8.23;;;20.00;76.00;;;;;;5094199;28;20052;-76
2021/06/29 11:23:05;;;;;;;22.63;9.13;;;20.00;75.90;;;;;;5086784;28;20146;-76
2021/06/29 11:25:44;;;;;;;17.83;7.88;;;20.10;75.90;;;;;;5093191;28;20056;-76
2021/06/29 11:28:30;;;;;;;17.83;7.30;;;20.10;75.70;;;;;;5094261;28;20044;-76
2021/06/29 11:31:11;;;;;;;19.40;8.88;;;20.10;75.60;;;;;;5094271;28;20054;-74
2021/06/29 11:33:43;;;;;;;19.48;8.35;;;20.10;75.60;;;;;;5094152;28;20052;-75
2021/06/29 11:36:29;;;;;;;17.92;8.85;;;20.20;75.60;;;;;;5092161;28;20055;-80
2021/06/29 11:39:25;;;;;;;14.38;8.48;;;20.20;75.50;;;;;;5084274;28;20040;-75
2021/06/29 11:42:07;;;;;;;20.73;8.50;;;20.20;75.10;;;;;;5074143;28;20071;-73
2021/06/29 11:44:33;;;;;;;17.10;7.20;;;20.30;76.00;;;;;;5073765;28;20059;-75
2021/06/29 11:47:09;;;;;;;16.90;7.57;;;20.30;76.10;;;;;;5073962;28;20049;-76
2021/06/29 11:49:38;;;;;;;20.15;8.50;;;20.30;76.20;;;;;;5073916;28;20072;-72
2021/06/29 11:52:18;;;;;;;15.65;8.18;;;20.30;76.20;;;;;;5074089;28;20076;-73
2021/06/29 11:54:48;;;;;;;15.27;7.40;;;20.30;76.30;;;;;;5075340;28;20144;-72
2021/06/29 11:57:42;;;;;;;15.52;7.60;;;20.30;76.20;;;;;;5073538;28;20048;-77
2021/06/29 12:00:18;;;;;;;17.40;7.78;;;20.30;76.20;;;;;;5073991;28;20106;-75
2021/06/29 12:02:44;;;;;;;14.75;7.68;;;20.30;76.20;;;;;;5074001;28;20111;-74
2021/06/29 12:05:17;;;;;;;16.40;6.90;;;20.30;76.20;;;;;;5073689;28;20048;-74
2021/06/29 12:07:48;;;;;;;13.20;7.00;;;20.40;76.00;;;;;;5074736;28;20065;-75
2021/06/29 12:10:14;;;;;;;13.18;7.53;;;20.40;76.00;;;;;;5074838;28;20141;-75
2021/06/29 12:12:46;;;;;;;14.77;7.03;;;20.40;76.00;;;;;;5077193;28;20072;-73
2021/06/29 12:15:17;;;;;;;16.27;7.40;;;20.40;76.00;;;;;;5089395;28;20040;-73
2021/06/29 12:17:49;;;;;;;17.58;7.38;;;20.40;75.90;;;;;;5098237;28;20051;-75
2021/06/29 12:20:17;;;;;;;14.18;6.63;;;20.40;76.00;;;;;;5098552;28;20044;-73
2021/06/29 12:22:45;;;;;;;15.35;6.78;;;20.40;76.00;;;;;;5098004;28;20067;-77
2021/06/29 12:25:18;;;;;;;12.98;6.50;;;20.40;76.00;;;;;;5098924;28;20051;-75
2021/06/29 12:27:54;;;;;;;14.93;6.60;;;20.40;75.90;;;;;;5098426;28;20484;-76
2021/06/29 12:30:33;;;;;;;13.05;6.78;;;20.40;75.80;;;;;;5082428;28;20041;-78
2021/06/29 12:33:11;;;;;;;18.83;6.35;;;20.40;75.80;;;;;;5077604;28;20079;-74
2021/06/29 12:35:36;;;;;;;17.10;6.65;;;20.40;76.00;;;;;;5078682;28;20036;-75
2021/06/29 12:38:05;;;;;;;17.65;6.32;;;20.40;76.10;;;;;;5080462;28;20363;-74
2021/06/29 12:40:33;;;;;;;16.15;6.53;;;20.40;76.20;;;;;;5080630;28;20040;-77
2021/06/29 12:43:00;;;;;;;13.65;5.22;;;20.40;76.20;;;;;;5077323;28;20505;-75
2021/06/29 12:45:30;;;;;;;18.52;6.40;;;20.40;76.20;;;;;;5077560;28;20070;-76
2021/06/29 12:48:07;;;;;;;12.77;6.10;;;20.40;76.10;;;;;;5077283;28;20049;-76
2021/06/29 12:50:35;;;;;;;20.30;6.13;;;20.50;76.30;;;;;;5081176;28;20036;-75